Time;durP1;ratioP1;P1;durP2;ratioP2;P2;SDS_P1;SDS_P2;PMS_P1;PMS_P2;Temp;Humidity;BMP_temperature;BMP_pressure;BME280_temperature;BME280_humidity;BME280_pressure;Samples;Min_cycle;Max_cycle;Signal;HPM_P1;HPM_P2
2021/01/05 00:01:04;;;;;;;;;;;;;;;0.45;90.91;101834.25;5069000;28;1022;-81
2021/01/05 00:03:29;;;;;;;;;;;;;;;0.50;90.54;101828.88;5070020;28;1039;-80
2021/01/05 00:05:55;;;;;;;;;;;;;;;0.50;90.48;101835.16;5069198;28;1298;-81
2021/01/05 00:08:20;;;;;;;;;;;;;;;0.48;90.63;101831.84;5068948;28;1890;-81
2021/01/05 00:10:45;;;;;;;;;;;;;;;0.51;90.73;101828.66;5069283;28;908;-81
2021/01/05 00:13:11;;;;;;;;;;;;;;;0.52;90.54;101832.19;5069721;28;1055;-80
2021/01/05 00:15:36;;;;;;;;;;;;;;;0.52;90.93;101841.16;5069832;28;1011;-81
2021/01/05 00:18:01;;;;;;;;;;;;;;;0.58;90.58;101828.47;5069592;28;1356;-81
2021/01/05 00:20:29;;;;;;;;;;;;;;;0.56;90.47;101827.91;5069312;28;831;-80
2021/01/05 00:22:55;;;;;;;;;;;;;;;0.58;90.58;101831.19;5069748;28;782;-81
2021/01/05 00:25:22;;;;;;;;;;;;;;;0.63;90.68;101833.16;5070126;28;1019;-81
2021/01/05 00:27:47;;;;;;;;;;;;;;;0.62;90.62;101831.50;5070588;28;1964;-81
2021/01/05 00:30:17;;;;;;;;;;;;;;;0.59;90.85;101834.72;5069897;28;1024;-81
2021/01/05 00:32:44;;;;;;;;;;;;;;;0.59;90.69;101837.44;5069652;28;1032;-81
2021/01/05 00:35:16;;;;;;;;;;;;;;;0.58;90.89;101831.19;5070168;28;913;-81
2021/01/05 00:37:41;;;;;;;;;;;;;;;0.65;90.69;101833.72;5068566;28;1306;-80
2021/01/05 00:40:07;;;;;;;;;;;;;;;0.61;90.87;101838.84;5071136;28;1802;-81
2021/01/05 00:42:33;;;;;;;;;;;;;;;0.61;91.16;101838.03;5069697;28;957;-81
2021/01/05 00:44:59;;;;;;;;;;;;;;;0.66;90.65;101829.94;5070043;28;1012;-80
2021/01/05 00:47:24;;;;;;;;;;;;;;;0.67;90.73;101835.09;5068944;28;1955;-81
2021/01/05 00:49:49;;;;;;;;;;;;;;;0.63;90.92;101836.69;5068276;28;1079;-81
2021/01/05 00:52:14;;;;;;;;;;;;;;;0.66;90.77;101841.63;5067451;28;1053;-80
2021/01/05 00:54:40;;;;;;;;;;;;;;;0.65;91.06;101839.16;5068997;28;897;-80
2021/01/05 00:57:10;;;;;;;;;;;;;;;0.66;91.05;101840.81;5071321;28;1334;-80
2021/01/05 00:59:36;;;;;;;;;;;;;;;0.68;90.77;101839.47;5071042;28;886;-80
2021/01/05 01:02:02;;;;;;;;;;;;;;;0.68;91.00;101838.66;5069149;28;1012;-81
2021/01/05 01:04:27;;;;;;;;;;;;;;;0.66;90.82;101838.91;5068931;28;1375;-81
2021/01/05 01:06:53;;;;;;;;;;;;;;;0.74;90.72;101843.91;5072567;28;1290;-81
2021/01/05 01:09:19;;;;;;;;;;;;;;;0.71;90.87;101844.41;5072789;28;1940;-81
2021/01/05 01:12:13;;;;;;;;;;;;;;;0.72;90.82;101845.22;5073240;28;895;-81
2021/01/05 01:14:38;;;;;;;;;;;;;;;0.72;90.59;101839.78;5073455;28;1074;-80
2021/01/05 01:17:04;;;;;;;;;;;;;;;0.73;90.62;101849.59;5072672;28;1389;-81
2021/01/05 01:19:29;;;;;;;;;;;;;;;0.74;90.44;101841.19;5071766;28;1004;-81
2021/01/05 01:21:55;;;;;;;;;;;;;;;0.77;90.71;101848.00;5078216;28;1055;-80
2021/01/05 01:24:23;;;;;;;;;;;;;;;0.81;90.67;101846.41;5079227;28;1011;-80
2021/01/05 01:26:49;;;;;;;;;;;;;;;0.80;90.47;101841.25;5072515;28;1404;-81
2021/01/05 01:29:26;;;;;;;;;;;;;;;0.78;90.47;101844.22;5073548;28;1875;-80
2021/01/05 01:31:53;;;;;;;;;;;;;;;0.84;90.39;101845.09;5072826;28;900;-81
2021/01/05 01:34:21;;;;;;;;;;;;;;;0.81;90.33;101846.41;5071333;28;1062;-80
2021/01/05 01:37:02;;;;;;;;;;;;;;;0.81;90.54;101838.25;5072736;28;1286;-81
2021/01/05 01:39:29;;;;;;;;;;;;;;;0.86;90.34;101851.91;5072679;28;1087;-80
2021/01/05 01:41:57;;;;;;;;;;;;;;;0.89;90.09;101835.09;5072448;28;1161;-80
2021/01/05 01:44:29;;;;;;;;;;;;;;;0.86;90.03;101835.59;5072797;28;1682;-81
2021/01/05 01:47:00;;;;;;;;;;;;;;;0.86;90.35;101830.16;5072880;28;1389;-81
2021/01/05 01:49:25;;;;;;;;;;;;;;;0.89;90.11;101837.81;5073101;28;1894;-80
2021/01/05 01:51:53;;;;;;;;;;;;;;;0.86;90.53;101841.03;5073270;28;881;-81
2021/01/05 01:54:43;;;;;;;;;;;;;;;0.85;90.50;101838.56;5072526;28;948;-80
2021/01/05 01:57:30;;;;;;;;;;;;;;;0.85;90.53;101844.84;5071016;28;1271;-80
2021/01/05 02:00:14;;;;;;;;;;;;;;;0.88;90.42;101835.34;5071538;28;1036;-80
2021/01/05 02:03:06;;;;;;;;;;;;;;;0.88;90.04;101829.91;5074677;28;1020;-80
2021/01/05 02:05:47;;;;;;;;;;;;;;;0.93;90.18;101836.25;5075953;28;1019;-80
2021/01/05 02:08:35;;;;;;;;;;;;;;;0.90;90.38;101828.59;5072603;28;1890;-81
2021/01/05 02:11:23;;;;;;;;;;;;;;;0.91;90.03;101823.97;5072305;28;1090;-81
2021/01/05 02:14:04;;;;;;;;;;;;;;;0.90;90.17;101825.03;5072365;28;1078;-80
2021/01/05 02:17:07;;;;;;;;;;;;;;;0.90;90.47;101820.44;5072312;28;1318;-81
2021/01/05 02:19:42;;;;;;;;;;;;;;;0.91;90.36;101823.97;5072278;28;1374;-81
2021/01/05 02:22:26;;;;;;;;;;;;;;;0.94;89.84;101820.75;5070310;28;993;-80
2021/01/05 02:25:11;;;;;;;;;;;;;;;0.90;89.95;101820.44;5070243;28;908;-81
2021/01/05 02:27:50;;;;;;;;;;;;;;;0.93;89.91;101810.94;5071704;28;1890;-81
2021/01/05 02:30:23;;;;;;;;;;;;;;;0.91;89.96;101826.69;5072711;28;1074;-80
2021/01/05 02:32:58;;;;;;;;;;;;;;;0.91;89.92;101826.69;5078771;28;1000;-80
2021/01/05 02:35:29;;;;;;;;;;;;;;;0.88;90.09;101816.31;5077944;28;1027;-80
2021/01/05 02:38:31;;;;;;;;;;;;;;;0.86;90.16;101816.56;5072131;28;1337;-81
2021/01/05 02:41:10;;;;;;;;;;;;;;;0.90;89.89;101811.44;5071680;28;1020;-81
2021/01/05 02:44:13;;;;;;;;;;;;;;;0.88;89.81;101811.72;5071715;28;976;-81
2021/01/05 02:47:03;;;;;;;;;;;;;;;0.89;89.78;101817.97;5075164;28;1259;-80
2021/01/05 02:49:42;;;;;;;;;;;;;;;0.88;89.50;101817.16;5077079;28;1870;-80
2021/01/05 02:52:17;;;;;;;;;;;;;;;0.86;89.88;101805.69;5071213;28;1071;-80
2021/01/05 02:55:08;;;;;;;;;;;;;;;0.87;89.74;101815.50;5070897;28;1071;-80
2021/01/05 02:57:36;;;;;;;;;;;;;;;0.91;89.55;101811.19;5062473;28;1451;-80
2021/01/05 03:00:24;;;;;;;;;;;;;;;0.90;89.65;101816.88;5071331;28;981;-80
2021/01/05 03:03:11;;;;;;;;;;;;;;;0.94;89.42;101812.59;5070164;28;1000;-81
2021/01/05 03:05:46;;;;;;;;;;;;;;;0.91;89.55;101802.22;5070974;28;1010;-80
2021/01/05 03:08:12;;;;;;;;;;;;;;;0.89;89.39;101816.06;5071896;28;1866;-81
2021/01/05 03:10:52;;;;;;;;;;;;;;;0.91;89.83;101813.09;5071345;28;1015;-80
2021/01/05 03:13:40;;;;;;;;;;;;;;;0.94;89.35;101815.31;5072046;28;1188;-80
2021/01/05 03:16:12;;;;;;;;;;;;;;;0.96;89.60;101806.88;5078870;28;1505;-80
2021/01/05 03:18:51;;;;;;;;;;;;;;;0.97;89.70;101811.22;5077613;28;881;-80
2021/01/05 03:21:25;;;;;;;;;;;;;;;1.00;89.44;101813.44;5071543;28;1632;-80
2021/01/05 03:23:51;;;;;;;;;;;;;;;0.99;89.51;101811.81;5078148;28;956;-79
2021/01/05 03:26:22;;;;;;;;;;;;;;;1.08;89.27;101813.81;5078992;28;1297;-79
2021/01/05 03:28:48;;;;;;;;;;;;;;;1.06;88.91;101807.81;5078603;28;1862;-80
2021/01/05 03:31:22;;;;;;;;;;;;;;;1.02;89.55;101812.13;5078966;28;972;-80
2021/01/05 03:33:54;;;;;;;;;;;;;;;1.02;89.32;101811.28;5074297;28;960;-81
2021/01/05 03:36:19;;;;;;;;;;;;;;;1.07;88.97;101808.63;5076594;28;1290;-80
2021/01/05 03:38:45;;;;;;;;;;;;;;;1.05;89.25;101806.16;5076089;28;1111;-80
2021/01/05 03:41:11;;;;;;;;;;;;;;;1.08;89.07;101804.84;5072115;28;1059;-80
2021/01/05 03:43:36;;;;;;;;;;;;;;;1.06;89.38;101807.00;5070568;28;902;-81
2021/01/05 03:46:02;;;;;;;;;;;;;;;1.08;89.36;101805.66;5068405;28;1306;-81
2021/01/05 03:48:27;;;;;;;;;;;;;;;1.11;89.09;101807.88;5068582;28;1959;-81
2021/01/05 03:50:52;;;;;;;;;;;;;;;1.06;89.39;101810.53;5067795;28;967;-80
2021/01/05 03:53:18;;;;;;;;;;;;;;;1.08;89.43;101813.81;5068416;28;908;-80
2021/01/05 03:55:43;;;;;;;;;;;;;;;1.07;89.47;101817.63;5068671;28;1011;-81
2021/01/05 03:58:09;;;;;;;;;;;;;;;1.10;89.50;101813.56;5068943;28;1239;-80
2021/01/05 04:00:35;;;;;;;;;;;;;;;1.09;89.46;101815.47;5069241;28;847;-80
2021/01/05 04:03:00;;;;;;;;;;;;;;;1.08;89.71;101808.38;5068969;28;871;-81
2021/01/05 04:05:27;;;;;;;;;;;;;;;1.02;89.99;101808.56;5068495;28;876;-80
2021/01/05 04:07:53;;;;;;;;;;;;;;;1.00;90.16;101806.09;5068610;28;1886;-81
2021/01/05 04:10:18;;;;;;;;;;;;;;;0.99;90.37;101799.03;5070088;28;1023;-81
2021/01/05 04:12:44;;;;;;;;;;;;;;;0.98;90.44;101796.56;5069071;28;1111;-80
2021/01/05 04:15:18;;;;;;;;;;;;;;;1.05;89.79;101798.00;5071726;28;1068;-81
2021/01/05 04:17:44;;;;;;;;;;;;;;;1.04;89.82;101803.69;5072794;28;1286;-81
2021/01/05 04:20:10;;;;;;;;;;;;;;;1.00;90.10;101803.38;5067486;28;1015;-80
2021/01/05 04:22:35;;;;;;;;;;;;;;;0.98;90.37;101799.28;5069552;28;1163;-80
2021/01/05 04:25:01;;;;;;;;;;;;;;;0.99;89.99;101801.75;5066916;28;1168;-81
2021/01/05 04:27:26;;;;;;;;;;;;;;;0.98;90.41;101797.38;5067838;28;1940;-80
2021/01/05 04:29:53;;;;;;;;;;;;;;;0.99;90.50;101795.50;5069163;28;1000;-81
2021/01/05 04:32:18;;;;;;;;;;;;;;;0.98;90.49;101802.00;5069097;28;1031;-80
2021/01/05 04:34:44;;;;;;;;;;;;;;;1.00;90.31;101797.94;5070217;28;1004;-80
2021/01/05 04:37:09;;;;;;;;;;;;;;;1.00;90.24;101800.66;5069578;28;1369;-80
2021/01/05 04:39:34;;;;;;;;;;;;;;;1.02;90.08;101797.69;5071011;28;892;-80
2021/01/05 04:42:18;;;;;;;;;;;;;;;0.99;90.26;101807.19;5073601;28;773;-80
2021/01/05 04:44:55;;;;;;;;;;;;;;;1.02;90.09;101801.25;5073144;28;1047;-80
2021/01/05 04:47:38;;;;;;;;;;;;;;;0.98;90.71;101799.28;5073808;28;1893;-80
2021/01/05 04:50:11;;;;;;;;;;;;;;;0.95;90.79;101808.75;5073561;28;1106;-81
2021/01/05 04:52:43;;;;;;;;;;;;;;;0.98;90.60;101802.00;5072791;28;1075;-80
2021/01/05 04:55:27;;;;;;;;;;;;;;;0.95;90.56;101814.22;5072908;28;976;-80
2021/01/05 04:58:06;;;;;;;;;;;;;;;1.01;90.14;101818.63;5074141;28;1393;-82
2021/01/05 05:00:35;;;;;;;;;;;;;;;0.98;90.25;101818.34;5073540;28;1040;-81
2021/01/05 05:03:16;;;;;;;;;;;;;;;1.03;90.21;101811.03;5073061;28;885;-80
2021/01/05 05:05:57;;;;;;;;;;;;;;;0.99;90.13;101815.34;5073480;28;1032;-80
2021/01/05 05:08:41;;;;;;;;;;;;;;;0.96;90.16;101813.16;5078688;28;1875;-80
2021/01/05 05:11:11;;;;;;;;;;;;;;;0.95;90.42;101819.66;5080911;28;861;-79
2021/01/05 05:13:55;;;;;;;;;;;;;;;0.93;90.29;101817.22;5078750;28;1095;-80
2021/01/05 05:16:42;;;;;;;;;;;;;;;0.94;90.53;101816.13;5073017;28;1254;-80
2021/01/05 05:19:41;;;;;;;;;;;;;;;0.94;89.99;101812.59;5073050;28;976;-81
2021/01/05 05:22:16;;;;;;;;;;;;;;;0.93;90.49;101819.94;5073429;28;1039;-81
2021/01/05 05:24:55;;;;;;;;;;;;;;;0.94;90.73;101813.41;5072187;28;971;-80
2021/01/05 05:27:41;;;;;;;;;;;;;;;0.94;90.64;101813.41;5072472;28;1961;-80
2021/01/05 05:30:20;;;;;;;;;;;;;;;0.98;90.04;101816.41;5072418;28;1039;-81
2021/01/05 05:32:56;;;;;;;;;;;;;;;0.98;90.20;101818.34;5072943;28;1011;-80
2021/01/05 05:35:41;;;;;;;;;;;;;;;0.94;90.58;101829.72;5071290;28;1082;-81
2021/01/05 05:38:48;;;;;;;;;;;;;;;0.96;90.34;101821.31;5073607;28;1412;-80
2021/01/05 05:41:45;;;;;;;;;;;;;;;0.93;90.28;101819.94;5071680;28;1456;-81
2021/01/05 05:44:33;;;;;;;;;;;;;;;0.88;90.27;101821.75;5072652;28;1051;-80
2021/01/05 05:47:31;;;;;;;;;;;;;;;0.84;90.11;101817.91;5070966;28;1373;-80
2021/01/05 05:50:27;;;;;;;;;;;;;;;0.85;90.09;101817.66;5071690;28;988;-80
2021/01/05 05:53:01;;;;;;;;;;;;;;;0.84;90.23;101821.44;5050730;28;1227;-81
2021/01/05 05:55:32;;;;;;;;;;;;;;;0.82;90.38;101818.16;5071304;28;1080;-81
2021/01/05 05:58:02;;;;;;;;;;;;;;;0.84;90.24;101821.44;5069301;28;1270;-81
2021/01/05 06:00:31;;;;;;;;;;;;;;;0.84;90.31;101824.16;5071358;28;875;-80
2021/01/05 06:02:59;;;;;;;;;;;;;;;0.84;90.68;101816.00;5072697;28;1050;-80
2021/01/05 06:05:36;;;;;;;;;;;;;;;0.85;90.62;101824.97;5072073;28;820;-81
2021/01/05 06:08:04;;;;;;;;;;;;;;;0.85;90.72;101823.09;5071978;28;1972;-81
2021/01/05 06:10:29;;;;;;;;;;;;;;;0.83;90.39;101835.28;5071506;28;972;-80
2021/01/05 06:12:55;;;;;;;;;;;;;;;0.83;90.27;101825.25;5071367;28;1066;-80
2021/01/05 06:15:21;;;;;;;;;;;;;;;0.78;90.45;101824.34;5071654;28;908;-80
2021/01/05 06:17:47;;;;;;;;;;;;;;;0.75;90.56;101831.94;5070788;28;1361;-80
2021/01/05 06:20:13;;;;;;;;;;;;;;;0.77;90.52;101828.16;5072127;28;1027;-80
2021/01/05 06:22:39;;;;;;;;;;;;;;;0.70;90.46;101823.72;5071286;28;1011;-80
2021/01/05 06:25:06;;;;;;;;;;;;;;;0.69;90.71;101829.41;5071238;28;1000;-80
2021/01/05 06:27:32;;;;;;;;;;;;;;;0.67;90.78;101832.38;5071155;28;1890;-80
2021/01/05 06:29:57;;;;;;;;;;;;;;;0.68;90.71;101830.50;5072513;28;1016;-80
2021/01/05 06:32:23;;;;;;;;;;;;;;;0.65;90.54;101831.81;5071384;28;1027;-81
2021/01/05 06:34:48;;;;;;;;;;;;;;;0.63;90.53;101836.69;5071413;28;1094;-80
2021/01/05 06:37:15;;;;;;;;;;;;;;;0.61;90.98;101832.59;5071116;28;1376;-80
2021/01/05 06:39:40;;;;;;;;;;;;;;;0.63;91.27;101839.41;5071995;28;992;-80
2021/01/05 06:42:05;;;;;;;;;;;;;;;0.63;91.36;101835.88;5070223;28;912;-81
2021/01/05 06:44:31;;;;;;;;;;;;;;;0.67;91.32;101839.72;5070301;28;1000;-80
2021/01/05 06:46:56;;;;;;;;;;;;;;;0.68;91.39;101831.31;5071680;28;1282;-80
2021/01/05 06:49:23;;;;;;;;;;;;;;;0.65;91.47;101834.53;5071074;28;1931;-80
2021/01/05 06:51:48;;;;;;;;;;;;;;;0.66;91.62;101836.19;5071181;28;792;-81
2021/01/05 06:54:14;;;;;;;;;;;;;;;0.68;91.93;101833.22;5070389;28;1167;-80
2021/01/05 06:56:53;;;;;;;;;;;;;;;0.71;91.78;101844.41;5070412;28;1360;-80
2021/01/05 06:59:20;;;;;;;;;;;;;;;0.73;91.75;101841.44;5070792;28;1000;-80
2021/01/05 07:01:56;;;;;;;;;;;;;;;0.71;91.83;101838.13;5070432;28;932;-80
2021/01/05 07:04:22;;;;;;;;;;;;;;;0.72;91.87;101834.34;5070040;28;996;-80
2021/01/05 07:06:48;;;;;;;;;;;;;;;0.75;91.60;101848.25;5072843;28;1270;-80
2021/01/05 07:09:16;;;;;;;;;;;;;;;0.74;91.88;101849.34;5077463;28;1871;-80
2021/01/05 07:11:42;;;;;;;;;;;;;;;0.82;91.39;101852.69;5074063;28;1069;-80
2021/01/05 07:14:08;;;;;;;;;;;;;;;0.75;91.53;101852.88;5070194;28;1088;-80
2021/01/05 07:16:33;;;;;;;;;;;;;;;0.81;91.54;101859.19;5069646;28;1357;-80
2021/01/05 07:18:59;;;;;;;;;;;;;;;0.77;91.59;101858.06;5070070;28;935;-81
2021/01/05 07:21:25;;;;;;;;;;;;;;;0.76;91.84;101851.78;5069624;28;1020;-80
2021/01/05 07:23:51;;;;;;;;;;;;;;;0.82;91.81;101850.78;5069452;28;1000;-80
2021/01/05 07:26:16;;;;;;;;;;;;;;;0.78;91.89;101856.97;5069836;28;1389;-81
2021/01/05 07:28:42;;;;;;;;;;;;;;;0.79;91.92;101856.72;5067860;28;1953;-80
2021/01/05 07:31:07;;;;;;;;;;;;;;;0.80;92.08;101863.81;5068043;28;972;-80
2021/01/05 07:33:33;;;;;;;;;;;;;;;0.83;92.00;101867.91;5067506;28;979;-80
2021/01/05 07:36:05;;;;;;;;;;;;;;;0.83;91.90;101865.19;5067977;28;1365;-80
2021/01/05 07:38:31;;;;;;;;;;;;;;;0.87;91.75;101869.88;5068072;28;1019;-81
2021/01/05 07:40:56;;;;;;;;;;;;;;;0.86;91.81;101860.06;5068677;28;897;-80
2021/01/05 07:43:21;;;;;;;;;;;;;;;0.89;91.73;101865.00;5069046;28;1121;-80
2021/01/05 07:45:47;;;;;;;;;;;;;;;0.87;91.59;101863.63;5068452;28;845;-80
2021/01/05 07:48:12;;;;;;;;;;;;;;;0.86;92.21;101865.50;5075979;28;1862;-80
2021/01/05 07:50:38;;;;;;;;;;;;;;;0.89;91.88;101869.63;5077319;28;1158;-79
2021/01/05 07:53:03;;;;;;;;;;;;;;;0.94;91.75;101872.41;5070542;28;932;-80
2021/01/05 07:55:30;;;;;;;;;;;;;;;0.91;91.99;101875.63;5068542;28;794;-80
2021/01/05 07:57:56;;;;;;;;;;;;;;;0.93;91.61;101874.31;5067438;28;1258;-80
2021/01/05 08:00:23;;;;;;;;;;;;;;;0.92;91.78;101869.94;5067575;28;845;-80
2021/01/05 08:02:50;;;;;;;;;;;;;;;0.90;91.77;101871.25;5067285;28;806;-81
2021/01/05 08:05:18;;;;;;;;;;;;;;;0.93;91.77;101874.31;5069359;28;979;-80
2021/01/05 08:07:44;;;;;;;;;;;;;;;0.92;91.52;101875.38;5065403;28;1871;-80
2021/01/05 08:10:25;;;;;;;;;;;;;;;0.93;91.60;101887.91;5067635;28;1024;-80
2021/01/05 08:12:51;;;;;;;;;;;;;;;0.90;91.59;101879.41;5068198;28;1107;-80
2021/01/05 08:15:19;;;;;;;;;;;;;;;0.94;91.31;101875.13;5069741;28;932;-81
2021/01/05 08:17:44;;;;;;;;;;;;;;;0.97;91.40;101879.22;5071598;28;1349;-80
2021/01/05 08:20:10;;;;;;;;;;;;;;;0.87;91.07;101867.16;5071409;28;905;-80
2021/01/05 08:22:35;;;;;;;;;;;;;;;1.02;90.98;101890.19;5071309;28;1193;-80
2021/01/05 08:25:01;;;;;;;;;;;;;;;1.00;90.81;101884.16;5071329;28;944;-80
2021/01/05 08:27:27;;;;;;;;;;;;;;;1.00;90.87;101881.44;5071858;28;1870;-80
2021/01/05 08:29:52;;;;;;;;;;;;;;;1.03;90.84;101889.09;5071635;28;1039;-80
2021/01/05 08:32:17;;;;;;;;;;;;;;;1.07;90.68;101888.34;5073145;28;1103;-80
2021/01/05 08:34:44;;;;;;;;;;;;;;;1.11;90.42;101885.94;5076576;28;1118;-80
2021/01/05 08:37:09;;;;;;;;;;;;;;;1.10;90.37;101892.47;5079665;28;1286;-80
2021/01/05 08:39:35;;;;;;;;;;;;;;;1.08;90.51;101894.63;5072656;28;1099;-80
2021/01/05 08:42:00;;;;;;;;;;;;;;;1.07;90.62;101895.69;5072605;28;1234;-81
2021/01/05 08:44:26;;;;;;;;;;;;;;;1.07;90.63;101890.22;5072604;28;1000;-81
2021/01/05 08:46:59;;;;;;;;;;;;;;;1.09;90.29;101898.97;5072525;28;1290;-80
2021/01/05 08:49:24;;;;;;;;;;;;;;;1.10;90.57;101900.63;5072372;28;1874;-80
2021/01/05 08:51:52;;;;;;;;;;;;;;;1.09;90.57;101905.25;5072362;28;1020;-81
2021/01/05 08:54:17;;;;;;;;;;;;;;;1.15;90.34;101902.59;5072001;28;882;-80
2021/01/05 08:56:43;;;;;;;;;;;;;;;1.16;90.30;101902.34;5073116;28;1416;-80
2021/01/05 08:59:08;;;;;;;;;;;;;;;1.15;90.60;101905.31;5073504;28;774;-81
2021/01/05 09:01:34;;;;;;;;;;;;;;;1.13;90.20;101909.09;5071910;28;1012;-81
2021/01/05 09:03:59;;;;;;;;;;;;;;;1.15;90.21;101905.31;5072044;28;883;-81
2021/01/05 09:06:25;;;;;;;;;;;;;;;1.17;90.24;101897.72;5071333;28;1795;-81
2021/01/05 09:08:52;;;;;;;;;;;;;;;1.17;90.33;101905.88;5071438;28;1874;-81
2021/01/05 09:11:21;;;;;;;;;;;;;;;1.17;90.62;101905.88;5071481;28;1015;-81
2021/01/05 09:13:47;;;;;;;;;;;;;;;1.21;89.88;101916.00;5071545;28;833;-81
2021/01/05 09:16:26;;;;;;;;;;;;;;;1.21;90.27;101904.28;5071356;28;1393;-81
2021/01/05 09:18:55;;;;;;;;;;;;;;;1.31;89.89;101912.56;5070747;28;960;-81
2021/01/05 09:21:23;;;;;;;;;;;;;;;1.28;90.15;101915.78;5071595;28;991;-81
2021/01/05 09:23:53;;;;;;;;;;;;;;;1.27;89.92;101911.44;5071242;28;1028;-82
2021/01/05 09:26:24;;;;;;;;;;;;;;;1.31;90.08;101915.28;5068971;28;1351;-81
2021/01/05 09:28:50;;;;;;;;;;;;;;;1.36;90.18;101911.78;5071175;28;1878;-81
2021/01/05 09:31:16;;;;;;;;;;;;;;;1.42;89.09;101910.75;5072202;28;1041;-81
2021/01/05 09:33:41;;;;;;;;;;;;;;;1.37;89.28;101905.25;5071524;28;1118;-80
2021/01/05 09:36:08;;;;;;;;;;;;;;;1.36;89.42;101915.34;5071674;28;1368;-80
2021/01/05 09:38:33;;;;;;;;;;;;;;;1.40;89.50;101915.63;5071463;28;1080;-81
2021/01/05 09:40:59;;;;;;;;;;;;;;;1.41;89.58;101912.66;5071025;28;959;-81
2021/01/05 09:43:24;;;;;;;;;;;;;;;1.45;89.65;101919.25;5071415;28;805;-81
2021/01/05 09:45:49;;;;;;;;;;;;;;;1.49;89.62;101914.94;5070997;28;1036;-81
2021/01/05 09:48:16;;;;;;;;;;;;;;;1.46;89.54;101920.88;5070788;28;1949;-81
2021/01/05 09:50:43;;;;;;;;;;;;;;;1.48;89.39;101921.44;5070346;28;1000;-81
2021/01/05 09:53:09;;;;;;;;;;;;;;;1.45;88.94;101924.69;5070693;28;1066;-81
2021/01/05 09:55:37;;;;;;;;;;;;;;;1.44;89.05;101925.78;5069426;28;1110;-81
2021/01/05 09:58:02;;;;;;;;;;;;;;;1.39;89.55;101927.63;5069884;28;1258;-81
2021/01/05 10:00:28;;;;;;;;;;;;;;;1.41;89.38;101928.19;5071355;28;1058;-81
2021/01/05 10:02:53;;;;;;;;;;;;;;;1.42;89.62;101924.38;5076651;28;1007;-81
2021/01/05 10:05:19;;;;;;;;;;;;;;;1.36;89.57;101928.94;5073461;28;1039;-81
2021/01/05 10:07:45;;;;;;;;;;;;;;;1.38;89.60;101928.69;5071964;28;1959;-81
2021/01/05 10:10:17;;;;;;;;;;;;;;;1.42;89.83;101927.09;5070620;28;972;-81
2021/01/05 10:12:42;;;;;;;;;;;;;;;1.50;89.23;101930.19;5079551;28;1074;-81
2021/01/05 10:17:43;;;;;;;;;;;;;;;1.48;89.16;101932.34;5750059;23;1651;-76
2021/01/05 10:20:11;;;;;;;;;;;;;;;1.53;89.58;101936.22;4997090;28;991;-76
2021/01/05 10:22:37;;;;;;;;;;;;;;;1.61;89.15;101924.84;4996696;28;947;-76
2021/01/05 10:25:03;;;;;;;;;;;;;;;1.56;89.42;101924.78;4996699;28;1539;-77
2021/01/05 10:27:28;;;;;;;;;;;;;;;1.57;89.39;101924.53;4996064;28;1977;-76
2021/01/05 10:29:55;;;;;;;;;;;;;;;1.62;88.97;101930.03;4997046;28;802;-77
2021/01/05 10:32:21;;;;;;;;;;;;;;;1.62;89.35;101930.03;4997102;28;972;-76
2021/01/05 10:34:48;;;;;;;;;;;;;;;1.65;89.38;101928.72;4996890;28;872;-76
2021/01/05 10:37:13;;;;;;;;;;;;;;;1.65;88.94;101929.53;4995390;28;1281;-77
2021/01/05 10:39:39;;;;;;;;;;;;;;;1.67;89.58;101932.81;4996154;28;983;-77
2021/01/05 10:42:05;;;;;;;;;;;;;;;1.66;88.97;101927.63;4996700;28;916;-77
2021/01/05 10:44:30;;;;;;;;;;;;;;;1.67;89.20;101930.09;4996564;28;892;-77
2021/01/05 10:47:00;;;;;;;;;;;;;;;1.66;89.00;101927.63;4996545;28;1042;-77
2021/01/05 10:49:26;;;;;;;;;;;;;;;1.65;89.06;101928.72;4995922;28;1910;-77
2021/01/05 10:51:54;;;;;;;;;;;;;;;1.67;89.39;101930.09;4996345;28;905;-77
2021/01/05 10:54:21;;;;;;;;;;;;;;;1.72;89.10;101923.88;4996581;28;926;-77
2021/01/05 10:56:57;;;;;;;;;;;;;;;1.71;88.91;101927.66;4996457;28;840;-77
2021/01/05 10:59:27;;;;;;;;;;;;;;;1.71;88.91;101932.28;4995735;28;1319;-77
2021/01/05 11:01:55;;;;;;;;;;;;;;;1.74;88.40;101937.22;4978900;28;1161;-77
2021/01/05 11:04:21;;;;;;;;;;;;;;;1.72;88.66;101932.03;4994925;28;845;-77
2021/01/05 11:07:00;;;;;;;;;;;;;;;1.76;88.79;101929.63;4996284;28;975;-77
2021/01/05 11:09:26;;;;;;;;;;;;;;;1.84;88.84;101927.25;4995356;28;1964;-77
2021/01/05 11:12:00;;;;;;;;;;;;;;;1.85;88.51;101923.47;4996178;28;872;-77
2021/01/05 11:14:25;;;;;;;;;;;;;;;1.90;88.54;101919.94;4996376;28;988;-77
2021/01/05 11:16:51;;;;;;;;;;;;;;;1.90;88.43;101919.94;4995921;28;767;-77
2021/01/05 11:19:17;;;;;;;;;;;;;;;1.95;88.13;101919.19;4995328;28;1247;-76
2021/01/05 11:21:55;;;;;;;;;;;;;;;1.97;88.71;101911.56;4995757;28;757;-77
2021/01/05 11:24:20;;;;;;;;;;;;;;;1.99;88.33;101904.78;4996150;28;877;-76
2021/01/05 11:26:48;;;;;;;;;;;;;;;2.02;88.13;101911.59;4996594;28;988;-77
2021/01/05 11:29:13;;;;;;;;;;;;;;;2.04;88.38;101904.81;4995770;28;1894;-77
2021/01/05 11:31:38;;;;;;;;;;;;;;;2.02;88.30;101900.72;4996276;28;797;-77
2021/01/05 11:34:04;;;;;;;;;;;;;;;1.99;87.99;101907.50;4996236;28;924;-77
2021/01/05 11:36:30;;;;;;;;;;;;;;;1.97;88.20;101906.94;4995161;28;1110;-77
2021/01/05 11:38:57;;;;;;;;;;;;;;;2.00;88.70;101905.59;4996848;28;1333;-76
2021/01/05 11:41:30;;;;;;;;;;;;;;;1.95;87.96;101902.81;4995618;28;884;-77
2021/01/05 11:43:57;;;;;;;;;;;;;;;1.96;88.00;101899.84;4995683;28;1047;-77
2021/01/05 11:46:23;;;;;;;;;;;;;;;2.02;88.08;101903.44;4991977;28;2170;-77
2021/01/05 11:48:49;;;;;;;;;;;;;;;2.03;88.73;101900.44;4983449;28;1952;-77
2021/01/05 11:51:35;;;;;;;;;;;;;;;2.02;87.93;101898.78;4977616;28;1534;-77
2021/01/05 11:54:02;;;;;;;;;;;;;;;2.07;88.55;101898.03;4989856;28;1534;-77
2021/01/05 11:56:29;;;;;;;;;;;;;;;2.03;87.93;101895.00;4993477;28;1270;-77
2021/01/05 11:58:55;;;;;;;;;;;;;;;2.05;87.46;101892.84;4993125;28;1436;-77
2021/01/05 12:01:22;;;;;;;;;;;;;;;2.07;87.60;101887.94;4992143;28;1384;-77
2021/01/05 12:03:49;;;;;;;;;;;;;;;2.04;87.40;101890.38;4993166;28;1246;-77
2021/01/05 12:06:20;;;;;;;;;;;;;;;2.06;87.61;101886.31;4983708;28;1718;-77
2021/01/05 12:08:48;;;;;;;;;;;;;;;2.09;87.45;101881.41;4973360;28;1915;-77
2021/01/05 12:11:23;;;;;;;;;;;;;;;2.11;87.58;101879.25;4975444;28;1398;-77
2021/01/05 12:13:49;;;;;;;;;;;;;;;2.12;87.45;101870.81;4975556;28;1178;-77
2021/01/05 12:16:36;;;;;;;;;;;;;;;2.14;87.49;101876.00;4975750;28;1265;-76
2021/01/05 12:19:04;;;;;;;;;;;;;;;2.16;86.57;101871.09;4975918;28;1421;-77
2021/01/05 12:21:34;;;;;;;;;;;;;;;2.14;87.61;101870.56;4976693;28;1428;-77
2021/01/05 12:23:59;;;;;;;;;;;;;;;2.16;87.14;101866.47;4978005;28;1226;-77
2021/01/05 12:26:34;;;;;;;;;;;;;;;2.17;87.36;101861.88;4987010;28;1195;-77
2021/01/05 12:29:02;;;;;;;;;;;;;;;2.18;86.55;101863.50;4986930;28;1875;-77
2021/01/05 12:31:28;;;;;;;;;;;;;;;2.19;86.98;101867.88;4978156;28;1285;-77
2021/01/05 12:33:55;;;;;;;;;;;;;;;2.28;86.21;101865.47;4994506;28;1226;-77
2021/01/05 12:36:31;;;;;;;;;;;;;;;2.32;86.54;101861.13;4995489;28;1222;-77
2021/01/05 12:38:58;;;;;;;;;;;;;;;2.47;86.19;101868.59;4993698;28;1344;-77
2021/01/05 12:41:32;;;;;;;;;;;;;;;2.53;85.40;101854.72;4994361;28;988;-77
2021/01/05 12:43:58;;;;;;;;;;;;;;;2.61;85.91;101861.56;4994767;28;825;-77
2021/01/05 12:46:26;;;;;;;;;;;;;;;2.75;85.61;101857.28;4994729;28;968;-77
2021/01/05 12:48:51;;;;;;;;;;;;;;;2.83;85.44;101853.22;4994385;28;1964;-77
2021/01/05 12:51:27;;;;;;;;;;;;;;;2.68;84.69;101859.41;4995080;28;840;-77
2021/01/05 12:53:53;;;;;;;;;;;;;;;2.68;84.65;101856.69;4995320;28;996;-77
2021/01/05 12:56:19;;;;;;;;;;;;;;;2.63;84.16;101849.31;4995108;28;845;-77
2021/01/05 12:58:44;;;;;;;;;;;;;;;2.57;85.25;101860.47;4994401;28;1358;-77
2021/01/05 13:01:09;;;;;;;;;;;;;;;2.48;84.44;101848.44;4995633;28;1055;-77
2021/01/05 13:03:35;;;;;;;;;;;;;;;2.42;85.40;101848.41;4998575;28;916;-77
2021/01/05 13:06:01;;;;;;;;;;;;;;;2.44;85.82;101846.22;4998499;28;943;-77
2021/01/05 13:08:26;;;;;;;;;;;;;;;2.44;86.18;101842.69;4997446;28;1980;-77
2021/01/05 13:10:51;;;;;;;;;;;;;;;2.45;85.60;101847.03;4998460;28;885;-77
2021/01/05 13:13:17;;;;;;;;;;;;;;;2.52;85.09;101844.06;4998253;28;1000;-77
2021/01/05 13:15:42;;;;;;;;;;;;;;;2.55;85.58;101851.72;4998262;28;908;-77
2021/01/05 13:18:07;;;;;;;;;;;;;;;2.48;84.77;101843.78;4997296;28;1264;-77